Time;durP1;ratioP1;P1;durP2;ratioP2;P2;SDS_P1;SDS_P2;PMS_P1;PMS_P2;Temp;Humidity;BMP_temperature;BMP_pressure;BME280_temperature;BME280_humidity;BME280_pressure;Samples;Min_cycle;Max_cycle;Signal;HPM_P1;HPM_P2
2023/06/13 00:02:12;;;;;;;;;;;;;;;;;;5115499;28;19920;-69
2023/06/13 00:04:43;;;;;;;;;;;;;;;;;;5115214;28;20375;-69
2023/06/13 00:07:09;;;;;;;;;;;;;;;;;;5115400;28;19912;-69
2023/06/13 00:09:35;;;;;;;;;;;;;;;;;;5115431;28;19926;-69
2023/06/13 00:12:00;;;;;;;;;;;;;;;;;;5115329;28;19923;-69
2023/06/13 00:14:25;;;;;;;;;;;;;;;;;;5115252;28;20306;-69
2023/06/13 00:16:50;;;;;;;;;;;;;;;;;;5115077;28;20294;-70
2023/06/13 00:19:15;;;;;;;;;;;;;;;;;;5115057;28;19920;-69
2023/06/13 00:21:41;;;;;;;;;;;;;;;;;;5115170;28;19916;-69
2023/06/13 00:24:06;;;;;;;;;;;;;;;;;;5113840;28;20014;-69
2023/06/13 00:26:31;;;;;;;;;;;;;;;;;;5114921;28;19938;-68
2023/06/13 00:28:57;;;;;;;;;;;;;;;;;;5115031;28;19919;-68
2023/06/13 00:31:24;;;;;;;;;;;;;;;;;;5096708;28;20347;-69
2023/06/13 00:33:50;;;;;;;;;;;;;;;;;;5095234;28;20003;-69
2023/06/13 00:36:16;;;;;;;;;;;;;;;;;;5115408;28;20367;-69
2023/06/13 00:38:42;;;;;;;;;;;;;;;;;;5096720;28;19916;-69
2023/06/13 00:41:07;;;;;;;;;;;;;;;;;;5115261;28;19938;-69
2023/06/13 00:43:34;;;;;;;;;;;;;;;;;;5096530;28;20367;-69
2023/06/13 00:46:00;;;;;;;;;;;;;;;;;;5114700;28;19915;-69
2023/06/13 00:48:25;;;;;;;;;;;;;;;;;;5094663;28;19920;-69
2023/06/13 00:50:52;;;;;;;;;;;;;;;;;;5114626;28;19968;-69
2023/06/13 00:53:18;;;;;;;;;;;;;;;;;;5114532;28;19996;-68
2023/06/13 00:55:43;;;;;;;;;;;;;;;;;;5114668;28;19969;-69
2023/06/13 00:58:10;;;;;;;;;;;;;;;;;;5114516;28;20267;-69
2023/06/13 01:00:35;;;;;;;;;;;;;;;;;;5114452;28;19915;-68
2023/06/13 01:03:07;;;;;;;;;;;;;;;;;;5114437;28;19934;-69
2023/06/13 01:05:32;;;;;;;;;;;;;;;;;;5096281;28;19992;-68
2023/06/13 01:07:57;;;;;;;;;;;;;;;;;;5114527;28;20375;-69
2023/06/13 01:10:24;;;;;;;;;;;;;;;;;;5096270;28;19927;-68
2023/06/13 01:12:51;;;;;;;;;;;;;;;;;;5114464;28;19916;-69
2023/06/13 01:15:17;;;;;;;;;;;;;;;;;;5114281;28;19934;-69
2023/06/13 01:17:42;;;;;;;;;;;;;;;;;;5112376;28;20374;-69
2023/06/13 01:20:14;;;;;;;;;;;;;;;;;;5114019;28;19920;-68
2023/06/13 01:22:42;;;;;;;;;;;;;;;;;;5114551;28;20337;-69
2023/06/13 01:25:08;;;;;;;;;;;;;;;;;;5114107;28;20379;-70
2023/06/13 01:27:33;;;;;;;;;;;;;;;;;;5095957;28;19923;-69
2023/06/13 01:29:58;;;;;;;;;;;;;;;;;;5113970;28;20362;-69
2023/06/13 01:32:23;;;;;;;;;;;;;;;;;;5114180;28;19998;-69
2023/06/13 01:34:49;;;;;;;;;;;;;;;;;;5114157;28;19922;-69
2023/06/13 01:37:16;;;;;;;;;;;;;;;;;;5113823;28;20283;-69
2023/06/13 01:39:43;;;;;;;;;;;;;;;;;;5095824;28;19915;-70
2023/06/13 01:42:08;;;;;;;;;;;;;;;;;;5114048;28;20390;-69
2023/06/13 01:44:33;;;;;;;;;;;;;;;;;;5113797;28;19994;-69
2023/06/13 01:46:59;;;;;;;;;;;;;;;;;;5112364;28;19911;-69
2023/06/13 01:49:24;;;;;;;;;;;;;;;;;;5113920;28;20038;-68
2023/06/13 01:51:50;;;;;;;;;;;;;;;;;;5095466;28;20340;-68
2023/06/13 01:54:15;;;;;;;;;;;;;;;;;;5113783;28;19916;-69
2023/06/13 01:56:40;;;;;;;;;;;;;;;;;;5113544;28;20379;-69
2023/06/13 01:59:05;;;;;;;;;;;;;;;;;;5113907;28;19916;-69
2023/06/13 02:01:32;;;;;;;;;;;;;;;;;;5095252;28;19923;-69
2023/06/13 02:03:57;;;;;;;;;;;;;;;;;;5113494;28;19916;-69
2023/06/13 02:06:23;;;;;;;;;;;;;;;;;;5113680;28;19919;-69
2023/06/13 02:08:50;;;;;;;;;;;;;;;;;;5095247;28;20401;-69
2023/06/13 02:11:15;;;;;;;;;;;;;;;;;;5113429;28;19916;-69
2023/06/13 02:13:40;;;;;;;;;;;;;;;;;;5095178;28;20377;-69
2023/06/13 02:16:06;;;;;;;;;;;;;;;;;;5095107;28;19923;-69
2023/06/13 02:18:33;;;;;;;;;;;;;;;;;;5112973;28;19927;-69
2023/06/13 02:20:58;;;;;;;;;;;;;;;;;;5077323;28;19919;-69
2023/06/13 02:23:25;;;;;;;;;;;;;;;;;;5095128;28;20082;-69
2023/06/13 02:25:53;;;;;;;;;;;;;;;;;;5113924;28;20002;-70
2023/06/13 02:28:19;;;;;;;;;;;;;;;;;;5113395;28;19943;-69
2023/06/13 02:30:46;;;;;;;;;;;;;;;;;;5112641;28;19959;-70
2023/06/13 02:33:14;;;;;;;;;;;;;;;;;;5115532;28;20331;-69
2023/06/13 02:35:43;;;;;;;;;;;;;;;;;;5098664;28;20018;-70
2023/06/13 02:38:08;;;;;;;;;;;;;;;;;;5117207;28;20018;-69
2023/06/13 02:40:33;;;;;;;;;;;;;;;;;;5115534;28;20290;-69
2023/06/13 02:42:59;;;;;;;;;;;;;;;;;;5098051;28;20355;-69
2023/06/13 02:45:24;;;;;;;;;;;;;;;;;;5098328;28;20040;-69
2023/06/13 02:47:50;;;;;;;;;;;;;;;;;;5098280;28;19951;-69
2023/06/13 02:50:16;;;;;;;;;;;;;;;;;;5116538;28;19970;-69
2023/06/13 02:52:41;;;;;;;;;;;;;;;;;;5098341;28;19915;-69
2023/06/13 02:55:07;;;;;;;;;;;;;;;;;;5116490;28;19951;-69
2023/06/13 02:57:33;;;;;;;;;;;;;;;;;;5116392;28;19915;-69
2023/06/13 02:59:58;;;;;;;;;;;;;;;;;;5098286;28;20405;-69
2023/06/13 03:02:25;;;;;;;;;;;;;;;;;;5092893;28;20315;-69
2023/06/13 03:04:52;;;;;;;;;;;;;;;;;;5094041;28;19919;-72
2023/06/13 03:07:17;;;;;;;;;;;;;;;;;;5094442;28;19916;-69
2023/06/13 03:09:43;;;;;;;;;;;;;;;;;;5093887;28;20367;-68
2023/06/13 03:12:08;;;;;;;;;;;;;;;;;;5112357;28;19930;-69
2023/06/13 03:14:33;;;;;;;;;;;;;;;;;;5093141;28;20287;-69
2023/06/13 03:16:59;;;;;;;;;;;;;;;;;;5093618;28;20329;-68
2023/06/13 03:19:24;;;;;;;;;;;;;;;;;;5093465;28;19916;-69
2023/06/13 03:21:50;;;;;;;;;;;;;;;;;;5093616;28;20024;-69
2023/06/13 03:24:20;;;;;;;;;;;;;;;;;;5111842;28;19915;-70
2023/06/13 03:26:46;;;;;;;;;;;;;;;;;;5093644;28;20006;-69
2023/06/13 03:29:12;;;;;;;;;;;;;;;;;;5110565;28;19927;-69
2023/06/13 03:31:37;;;;;;;;;;;;;;;;;;5111532;28;19916;-69
2023/06/13 03:34:02;;;;;;;;;;;;;;;;;;5093088;28;20367;-69
2023/06/13 03:36:28;;;;;;;;;;;;;;;;;;5106548;28;19923;-71
2023/06/13 03:38:55;;;;;;;;;;;;;;;;;;5093362;28;19912;-70
2023/06/13 03:41:21;;;;;;;;;;;;;;;;;;5093231;28;20444;-69
2023/06/13 03:43:46;;;;;;;;;;;;;;;;;;5090307;28;20316;-69
2023/06/13 03:46:11;;;;;;;;;;;;;;;;;;5082308;28;19966;-69
2023/06/13 03:48:36;;;;;;;;;;;;;;;;;;5111429;28;19919;-68
2023/06/13 03:51:02;;;;;;;;;;;;;;;;;;5111441;28;19969;-69
2023/06/13 03:53:27;;;;;;;;;;;;;;;;;;5093149;28;19916;-69
2023/06/13 03:55:52;;;;;;;;;;;;;;;;;;5111377;28;19999;-69
2023/06/13 03:58:20;;;;;;;;;;;;;;;;;;5091973;28;20034;-70
2023/06/13 04:00:46;;;;;;;;;;;;;;;;;;5110108;28;20006;-69
2023/06/13 04:03:13;;;;;;;;;;;;;;;;;;5093140;28;19919;-70
2023/06/13 04:05:39;;;;;;;;;;;;;;;;;;5093105;28;19922;-71
2023/06/13 04:08:05;;;;;;;;;;;;;;;;;;5111185;28;20291;-70
2023/06/13 04:10:30;;;;;;;;;;;;;;;;;;5093104;28;19923;-69
2023/06/13 04:12:56;;;;;;;;;;;;;;;;;;5110112;28;19916;-69
2023/06/13 04:15:22;;;;;;;;;;;;;;;;;;5093045;28;19923;-69
2023/06/13 04:17:47;;;;;;;;;;;;;;;;;;5092943;28;19926;-69
2023/06/13 04:20:14;;;;;;;;;;;;;;;;;;5110913;28;19916;-68
2023/06/13 04:22:41;;;;;;;;;;;;;;;;;;5093171;28;20287;-70
2023/06/13 04:25:07;;;;;;;;;;;;;;;;;;5092979;28;19916;-69
2023/06/13 04:27:34;;;;;;;;;;;;;;;;;;5111024;28;19916;-69
2023/06/13 04:29:59;;;;;;;;;;;;;;;;;;5092399;28;19927;-71
2023/06/13 04:32:28;;;;;;;;;;;;;;;;;;5109668;28;19919;-69
2023/06/13 04:34:55;;;;;;;;;;;;;;;;;;5109986;28;20060;-70
2023/06/13 04:37:26;;;;;;;;;;;;;;;;;;5111627;28;19942;-69
2023/06/13 04:39:51;;;;;;;;;;;;;;;;;;5111176;28;20390;-69
2023/06/13 04:42:24;;;;;;;;;;;;;;;;;;5092145;28;19912;-70
2023/06/13 04:44:52;;;;;;;;;;;;;;;;;;5110342;28;19916;-69
2023/06/13 04:47:17;;;;;;;;;;;;;;;;;;5108342;28;19916;-69
2023/06/13 04:49:45;;;;;;;;;;;;;;;;;;5111014;28;20400;-69
2023/06/13 04:52:13;;;;;;;;;;;;;;;;;;5110639;28;19916;-69
2023/06/13 04:54:39;;;;;;;;;;;;;;;;;;5110003;28;19955;-69
2023/06/13 04:57:05;;;;;;;;;;;;;;;;;;5108184;28;20379;-68
2023/06/13 04:59:30;;;;;;;;;;;;;;;;;;5110716;28;19916;-70
2023/06/13 05:01:55;;;;;;;;;;;;;;;;;;5108733;28;19938;-69
2023/06/13 05:04:20;;;;;;;;;;;;;;;;;;5110591;28;19920;-69
2023/06/13 05:06:46;;;;;;;;;;;;;;;;;;5114664;28;19916;-68
2023/06/13 05:09:12;;;;;;;;;;;;;;;;;;5113961;28;19967;-68
2023/06/13 05:11:37;;;;;;;;;;;;;;;;;;5110472;28;20303;-68
2023/06/13 05:14:02;;;;;;;;;;;;;;;;;;5106991;28;19980;-70
2023/06/13 05:16:29;;;;;;;;;;;;;;;;;;5110339;28;19975;-72
2023/06/13 05:19:00;;;;;;;;;;;;;;;;;;5109676;28;20389;-69
2023/06/13 05:21:26;;;;;;;;;;;;;;;;;;5110391;28;19926;-70
2023/06/13 05:23:51;;;;;;;;;;;;;;;;;;5092339;28;19976;-69
2023/06/13 05:26:17;;;;;;;;;;;;;;;;;;5110267;28;20359;-69
2023/06/13 05:28:42;;;;;;;;;;;;;;;;;;5106978;28;19927;-69
2023/06/13 05:31:07;;;;;;;;;;;;;;;;;;5108809;28;19916;-69
2023/06/13 05:33:33;;;;;;;;;;;;;;;;;;5110225;28;19916;-69
2023/06/13 05:35:58;;;;;;;;;;;;;;;;;;5110342;28;20014;-71
2023/06/13 05:38:23;;;;;;;;;;;;;;;;;;5110128;28;19938;-69
2023/06/13 05:40:49;;;;;;;;;;;;;;;;;;5110104;28;19927;-69
2023/06/13 05:43:19;;;;;;;;;;;;;;;;;;5109881;28;19928;-70
2023/06/13 05:45:44;;;;;;;;;;;;;;;;;;5110126;28;19969;-69
2023/06/13 05:48:09;;;;;;;;;;;;;;;;;;5108190;28;20189;-69
2023/06/13 05:50:35;;;;;;;;;;;;;;;;;;5108037;28;19963;-69
2023/06/13 05:53:00;;;;;;;;;;;;;;;;;;5109900;28;19961;-69
2023/06/13 05:55:25;;;;;;;;;;;;;;;;;;5105598;28;19916;-69
2023/06/13 05:57:51;;;;;;;;;;;;;;;;;;5108055;28;20014;-69
2023/06/13 06:00:17;;;;;;;;;;;;;;;;;;5108425;28;20374;-68
2023/06/13 06:02:42;;;;;;;;;;;;;;;;;;5109348;28;20352;-72
2023/06/13 06:05:08;;;;;;;;;;;;;;;;;;5102970;28;19980;-69
2023/06/13 06:07:33;;;;;;;;;;;;;;;;;;5095396;28;19912;-70
2023/06/13 06:09:59;;;;;;;;;;;;;;;;;;5089412;28;19928;-69
2023/06/13 06:12:24;;;;;;;;;;;;;;;;;;5088915;28;20320;-69
2023/06/13 06:14:49;;;;;;;;;;;;;;;;;;5089391;28;19924;-70
2023/06/13 06:17:15;;;;;;;;;;;;;;;;;;5101270;28;19959;-69
2023/06/13 06:19:40;;;;;;;;;;;;;;;;;;5109487;28;19923;-72
2023/06/13 06:22:05;;;;;;;;;;;;;;;;;;5108152;28;19916;-69
2023/06/13 06:24:30;;;;;;;;;;;;;;;;;;5107417;28;19977;-69
2023/06/13 06:26:56;;;;;;;;;;;;;;;;;;5089283;28;19920;-72
2023/06/13 06:29:21;;;;;;;;;;;;;;;;;;5096823;28;20398;-72
2023/06/13 06:31:46;;;;;;;;;;;;;;;;;;5089482;28;19916;-70
2023/06/13 06:34:12;;;;;;;;;;;;;;;;;;5094410;28;20324;-69
2023/06/13 06:36:37;;;;;;;;;;;;;;;;;;5103533;28;19923;-69
2023/06/13 06:39:02;;;;;;;;;;;;;;;;;;5105784;28;19916;-71
2023/06/13 06:41:27;;;;;;;;;;;;;;;;;;5107344;28;19916;-71
2023/06/13 06:43:53;;;;;;;;;;;;;;;;;;5105397;28;20301;-71
2023/06/13 06:46:22;;;;;;;;;;;;;;;;;;5087660;28;19916;-70
2023/06/13 06:48:47;;;;;;;;;;;;;;;;;;5107720;28;20414;-69
2023/06/13 06:51:13;;;;;;;;;;;;;;;;;;5087107;28;20354;-69
2023/06/13 06:53:39;;;;;;;;;;;;;;;;;;5105760;28;19926;-70
2023/06/13 06:56:04;;;;;;;;;;;;;;;;;;5106137;28;20394;-69
2023/06/13 06:58:30;;;;;;;;;;;;;;;;;;5105740;28;19920;-68
2023/06/13 07:00:56;;;;;;;;;;;;;;;;;;5101948;28;19916;-69
2023/06/13 07:03:21;;;;;;;;;;;;;;;;;;5100669;28;19927;-70
2023/06/13 07:05:47;;;;;;;;;;;;;;;;;;5097636;28;19916;-69
2023/06/13 07:08:12;;;;;;;;;;;;;;;;;;5106108;28;19923;-69
2023/06/13 07:10:37;;;;;;;;;;;;;;;;;;5100772;28;19924;-69
2023/06/13 07:13:03;;;;;;;;;;;;;;;;;;5094884;28;19913;-70
2023/06/13 07:15:28;;;;;;;;;;;;;;;;;;5086438;28;19966;-71
2023/06/13 07:17:53;;;;;;;;;;;;;;;;;;5106121;28;19916;-70
2023/06/13 07:20:20;;;;;;;;;;;;;;;;;;5108016;28;20581;-70
2023/06/13 07:22:45;;;;;;;;;;;;;;;;;;5109617;28;19916;-70
2023/06/13 07:25:10;;;;;;;;;;;;;;;;;;5108631;28;19916;-70
2023/06/13 07:27:42;;;;;;;;;;;;;;;;;;5099894;28;19916;-70
2023/06/13 07:30:08;;;;;;;;;;;;;;;;;;5095381;28;19931;-70
2023/06/13 07:32:33;;;;;;;;;;;;;;;;;;5108078;28;19916;-70
2023/06/13 07:34:59;;;;;;;;;;;;;;;;;;5099045;28;19918;-69
2023/06/13 07:37:24;;;;;;;;;;;;;;;;;;5101657;28;19930;-70
2023/06/13 07:39:49;;;;;;;;;;;;;;;;;;5095873;28;19948;-70
2023/06/13 07:42:15;;;;;;;;;;;;;;;;;;5105812;28;20397;-71
2023/06/13 07:44:41;;;;;;;;;;;;;;;;;;5101269;28;19920;-70
2023/06/13 07:47:06;;;;;;;;;;;;;;;;;;5109122;28;19912;-69
2023/06/13 07:49:31;;;;;;;;;;;;;;;;;;5105762;28;19931;-70
2023/06/13 07:51:57;;;;;;;;;;;;;;;;;;5108812;28;19960;-70
2023/06/13 07:54:22;;;;;;;;;;;;;;;;;;5089651;28;20294;-70
2023/06/13 07:56:49;;;;;;;;;;;;;;;;;;5093621;28;19923;-70
2023/06/13 07:59:14;;;;;;;;;;;;;;;;;;5106530;28;20003;-68
2023/06/13 08:01:40;;;;;;;;;;;;;;;;;;5109192;28;20022;-70
2023/06/13 08:04:05;;;;;;;;;;;;;;;;;;5108213;28;20077;-69
2023/06/13 08:06:31;;;;;;;;;;;;;;;;;;5104213;28;20278;-69
2023/06/13 08:08:56;;;;;;;;;;;;;;;;;;5106200;28;19964;-70
2023/06/13 08:11:21;;;;;;;;;;;;;;;;;;5109163;28;19919;-71
2023/06/13 08:13:47;;;;;;;;;;;;;;;;;;5108913;28;20352;-70
2023/06/13 08:16:12;;;;;;;;;;;;;;;;;;5089745;28;20409;-71
2023/06/13 08:18:38;;;;;;;;;;;;;;;;;;5107283;28;20283;-70
2023/06/13 08:21:03;;;;;;;;;;;;;;;;;;5108471;28;20006;-71
2023/06/13 08:23:29;;;;;;;;;;;;;;;;;;5089997;28;20010;-73
2023/06/13 08:25:54;;;;;;;;;;;;;;;;;;5108317;28;19923;-70
2023/06/13 08:28:20;;;;;;;;;;;;;;;;;;5105975;28;20328;-69
2023/06/13 08:30:46;;;;;;;;;;;;;;;;;;5107033;28;19929;-70
2023/06/13 08:33:11;;;;;;;;;;;;;;;;;;5106492;28;19916;-70
2023/06/13 08:35:37;;;;;;;;;;;;;;;;;;5088835;28;20006;-72
2023/06/13 08:38:02;;;;;;;;;;;;;;;;;;5106615;28;20018;-70
2023/06/13 08:40:28;;;;;;;;;;;;;;;;;;5106287;28;20015;-69
2023/06/13 08:42:53;;;;;;;;;;;;;;;;;;5106911;28;19989;-70
2023/06/13 08:45:18;;;;;;;;;;;;;;;;;;5106233;28;20387;-71
2023/06/13 08:47:46;;;;;;;;;;;;;;;;;;5106570;28;19919;-69
2023/06/13 08:50:13;;;;;;;;;;;;;;;;;;5087896;28;19926;-71
2023/06/13 08:52:39;;;;;;;;;;;;;;;;;;5107285;28;19920;-70
2023/06/13 08:55:04;;;;;;;;;;;;;;;;;;5108765;28;19934;-70
2023/06/13 08:57:31;;;;;;;;;;;;;;;;;;5107817;28;20290;-70
2023/06/13 08:59:56;;;;;;;;;;;;;;;;;;5107356;28;19915;-71
2023/06/13 09:02:21;;;;;;;;;;;;;;;;;;5089904;28;19915;-71
2023/06/13 09:04:47;;;;;;;;;;;;;;;;;;5108113;28;19920;-71
2023/06/13 09:07:12;;;;;;;;;;;;;;;;;;5108186;28;19912;-72
2023/06/13 09:09:37;;;;;;;;;;;;;;;;;;5108304;28;20267;-71
2023/06/13 09:12:03;;;;;;;;;;;;;;;;;;5107748;28;19908;-69
2023/06/13 09:14:28;;;;;;;;;;;;;;;;;;5107524;28;20371;-72
2023/06/13 09:16:53;;;;;;;;;;;;;;;;;;5107031;28;19951;-71
2023/06/13 09:19:18;;;;;;;;;;;;;;;;;;5107902;28;20365;-71
2023/06/13 09:21:44;;;;;;;;;;;;;;;;;;5107999;28;20027;-72
2023/06/13 09:24:09;;;;;;;;;;;;;;;;;;5100479;28;20022;-70
2023/06/13 09:26:34;;;;;;;;;;;;;;;;;;5097995;28;19934;-70
2023/06/13 09:29:00;;;;;;;;;;;;;;;;;;5106678;28;20010;-70
2023/06/13 09:31:25;;;;;;;;;;;;;;;;;;5104990;28;19915;-70
2023/06/13 09:33:51;;;;;;;;;;;;;;;;;;5107572;28;19920;-71
2023/06/13 09:36:17;;;;;;;;;;;;;;;;;;5107413;28;19967;-69
2023/06/13 09:38:43;;;;;;;;;;;;;;;;;;5107246;28;20390;-71
2023/06/13 09:41:08;;;;;;;;;;;;;;;;;;5106803;28;20254;-72
2023/06/13 09:43:34;;;;;;;;;;;;;;;;;;5107487;28;20246;-69
2023/06/13 09:46:00;;;;;;;;;;;;;;;;;;5106811;28;20011;-71
2023/06/13 09:48:25;;;;;;;;;;;;;;;;;;5107616;28;20014;-70
2023/06/13 09:50:51;;;;;;;;;;;;;;;;;;5106837;28;19974;-71
2023/06/13 09:53:16;;;;;;;;;;;;;;;;;;5099544;28;19916;-73
2023/06/13 09:55:41;;;;;;;;;;;;;;;;;;5087219;28;19927;-74
2023/06/13 09:58:07;;;;;;;;;;;;;;;;;;5086673;28;20420;-73
2023/06/13 10:00:32;;;;;;;;;;;;;;;;;;5102188;28;19927;-73
2023/06/13 10:02:57;;;;;;;;;;;;;;;;;;5107141;28;19939;-72
2023/06/13 10:05:22;;;;;;;;;;;;;;;;;;5107173;28;19923;-72
2023/06/13 10:07:48;;;;;;;;;;;;;;;;;;5108447;28;20498;-73
2023/06/13 10:10:13;;;;;;;;;;;;;;;;;;5105961;28;20351;-74
2023/06/13 10:12:38;;;;;;;;;;;;;;;;;;5107726;28;19927;-73
2023/06/13 10:15:03;;;;;;;;;;;;;;;;;;5108769;28;19964;-73
2023/06/13 10:17:29;;;;;;;;;;;;;;;;;;5108859;28;19916;-74
2023/06/13 10:19:54;;;;;;;;;;;;;;;;;;5108957;28;19922;-72
2023/06/13 10:22:20;;;;;;;;;;;;;;;;;;5108966;28;19927;-74
2023/06/13 10:24:45;;;;;;;;;;;;;;;;;;5109055;28;19916;-74
2023/06/13 10:27:11;;;;;;;;;;;;;;;;;;5108705;28;19923;-73
2023/06/13 10:29:36;;;;;;;;;;;;;;;;;;5089120;28;20016;-74
2023/06/13 10:32:02;;;;;;;;;;;;;;;;;;5106649;28;19926;-74
2023/06/13 10:34:27;;;;;;;;;;;;;;;;;;5108955;28;19961;-73
2023/06/13 10:36:52;;;;;;;;;;;;;;;;;;5108705;28;19920;-73
2023/06/13 10:39:18;;;;;;;;;;;;;;;;;;5090452;28;19977;-73
2023/06/13 10:41:43;;;;;;;;;;;;;;;;;;5108987;28;19912;-74
2023/06/13 10:44:08;;;;;;;;;;;;;;;;;;5108203;28;20375;-74
2023/06/13 10:46:34;;;;;;;;;;;;;;;;;;5108278;28;20024;-73
2023/06/13 10:49:02;;;;;;;;;;;;;;;;;;5107914;28;19922;-73
2023/06/13 10:51:28;;;;;;;;;;;;;;;;;;5108656;28;20390;-73
2023/06/13 10:53:53;;;;;;;;;;;;;;;;;;5110287;28;19916;-74
2023/06/13 10:56:18;;;;;;;;;;;;;;;;;;5092491;28;20325;-74
2023/06/13 10:58:45;;;;;;;;;;;;;;;;;;5111580;28;19955;-74
2023/06/13 11:01:10;;;;;;;;;;;;;;;;;;5110168;28;19920;-74
2023/06/13 11:03:35;;;;;;;;;;;;;;;;;;5111906;28;19976;-74
2023/06/13 11:06:00;;;;;;;;;;;;;;;;;;5104554;28;20010;-75
2023/06/13 11:08:26;;;;;;;;;;;;;;;;;;5102804;28;20402;-74
2023/06/13 11:10:51;;;;;;;;;;;;;;;;;;5110837;28;19928;-73
2023/06/13 11:13:16;;;;;;;;;;;;;;;;;;5107843;28;19919;-72
2023/06/13 11:15:43;;;;;;;;;;;;;;;;;;5091491;28;19927;-73
2023/06/13 11:18:08;;;;;;;;;;;;;;;;;;5078312;28;19916;-72
2023/06/13 11:20:33;;;;;;;;;;;;;;;;;;5090777;28;19927;-73
2023/06/13 11:22:58;;;;;;;;;;;;;;;;;;5105323;28;19923;-72
2023/06/13 11:25:24;;;;;;;;;;;;;;;;;;5103782;28;19972;-73
2023/06/13 11:27:49;;;;;;;;;;;;;;;;;;5102380;28;19952;-72
2023/06/13 11:30:14;;;;;;;;;;;;;;;;;;5110927;28;20016;-73
2023/06/13 11:32:40;;;;;;;;;;;;;;;;;;5109503;28;19923;-73
2023/06/13 11:35:05;;;;;;;;;;;;;;;;;;5108960;28;19920;-74
2023/06/13 11:37:31;;;;;;;;;;;;;;;;;;5109188;28;19922;-73
2023/06/13 11:39:56;;;;;;;;;;;;;;;;;;5090666;28;20019;-71
2023/06/13 11:42:21;;;;;;;;;;;;;;;;;;5109304;28;19916;-72
2023/06/13 11:44:46;;;;;;;;;;;;;;;;;;5109668;28;19922;-73
2023/06/13 11:47:12;;;;;;;;;;;;;;;;;;5108234;28;20394;-72
2023/06/13 11:49:37;;;;;;;;;;;;;;;;;;5109424;28;19919;-73
2023/06/13 11:52:02;;;;;;;;;;;;;;;;;;5108633;28;19920;-72
2023/06/13 11:54:28;;;;;;;;;;;;;;;;;;5109260;28;19922;-72
2023/06/13 11:56:53;;;;;;;;;;;;;;;;;;5109099;28;20019;-72
2023/06/13 11:59:18;;;;;;;;;;;;;;;;;;5108642;28;19958;-73
2023/06/13 12:01:43;;;;;;;;;;;;;;;;;;5109104;28;20398;-72
2023/06/13 12:04:10;;;;;;;;;;;;;;;;;;5107130;28;19916;-72
2023/06/13 12:06:38;;;;;;;;;;;;;;;;;;5089287;28;20023;-73
2023/06/13 12:09:03;;;;;;;;;;;;;;;;;;5101394;28;19931;-72
2023/06/13 12:11:29;;;;;;;;;;;;;;;;;;5107204;28;20014;-73
2023/06/13 12:13:54;;;;;;;;;;;;;;;;;;5090673;28;19920;-74
2023/06/13 12:16:19;;;;;;;;;;;;;;;;;;5094735;28;19916;-73
2023/06/13 12:18:45;;;;;;;;;;;;;;;;;;5101421;28;19919;-73
2023/06/13 12:21:10;;;;;;;;;;;;;;;;;;5099900;28;19916;-72
2023/06/13 12:23:37;;;;;;;;;;;;;;;;;;5088970;28;19938;-73
2023/06/13 12:26:03;;;;;;;;;;;;;;;;;;5108206;28;19962;-73
2023/06/13 12:28:29;;;;;;;;;;;;;;;;;;5107075;28;19955;-73
2023/06/13 12:30:55;;;;;;;;;;;;;;;;;;5107447;28;19976;-72
2023/06/13 12:33:20;;;;;;;;;;;;;;;;;;5107339;28;20038;-73
2023/06/13 12:35:46;;;;;;;;;;;;;;;;;;5106922;28;20061;-73
2023/06/13 12:38:12;;;;;;;;;;;;;;;;;;5107560;28;19959;-73
2023/06/13 12:40:37;;;;;;;;;;;;;;;;;;5107688;28;20025;-73
2023/06/13 12:43:03;;;;;;;;;;;;;;;;;;5107097;28;20320;-73
2023/06/13 12:45:28;;;;;;;;;;;;;;;;;;5102506;28;19932;-73
2023/06/13 12:47:53;;;;;;;;;;;;;;;;;;5095930;28;19920;-74
2023/06/13 12:50:18;;;;;;;;;;;;;;;;;;5096231;28;19923;-73
2023/06/13 12:52:44;;;;;;;;;;;;;;;;;;5090146;28;19912;-74
2023/06/13 12:55:09;;;;;;;;;;;;;;;;;;5086792;28;20306;-74
2023/06/13 12:57:35;;;;;;;;;;;;;;;;;;5069866;28;19912;-75
2023/06/13 13:00:01;;;;;;;;;;;;;;;;;;5094060;28;20359;-74
2023/06/13 13:02:29;;;;;;;;;;;;;;;;;;5107877;28;19913;-73
2023/06/13 13:04:57;;;;;;;;;;;;;;;;;;5092639;28;19920;-73
2023/06/13 13:07:23;;;;;;;;;;;;;;;;;;5104360;28;19927;-73
2023/06/13 13:09:48;;;;;;;;;;;;;;;;;;5099350;28;20260;-74
2023/06/13 13:12:14;;;;;;;;;;;;;;;;;;5087003;28;20371;-72
2023/06/13 13:14:39;;;;;;;;;;;;;;;;;;5085891;28;19920;-74
2023/06/13 13:17:04;;;;;;;;;;;;;;;;;;5101443;28;19916;-73
2023/06/13 13:19:30;;;;;;;;;;;;;;;;;;5097949;28;19916;-74
2023/06/13 13:21:55;;;;;;;;;;;;;;;;;;5100645;28;19920;-73
2023/06/13 13:24:21;;;;;;;;;;;;;;;;;;5080461;28;19916;-74
2023/06/13 13:26:46;;;;;;;;;;;;;;;;;;5108130;28;19916;-74
2023/06/13 13:29:11;;;;;;;;;;;;;;;;;;5108111;28;20360;-73
2023/06/13 13:31:36;;;;;;;;;;;;;;;;;;5098063;28;20372;-74
2023/06/13 13:34:02;;;;;;;;;;;;;;;;;;5105337;28;20027;-74
2023/06/13 13:36:27;;;;;;;;;;;;;;;;;;5089161;28;19920;-74
2023/06/13 13:38:52;;;;;;;;;;;;;;;;;;5073447;28;19918;-73
2023/06/13 13:41:17;;;;;;;;;;;;;;;;;;5080482;28;19995;-73
2023/06/13 13:43:43;;;;;;;;;;;;;;;;;;5087460;28;20835;-73
2023/06/13 13:46:08;;;;;;;;;;;;;;;;;;5093505;28;20493;-74
2023/06/13 13:48:33;;;;;;;;;;;;;;;;;;5105531;28;19926;-73
2023/06/13 13:50:58;;;;;;;;;;;;;;;;;;5103533;28;19924;-73
2023/06/13 13:53:26;;;;;;;;;;;;;;;;;;5103383;28;19955;-74
2023/06/13 13:55:51;;;;;;;;;;;;;;;;;;5102320;28;19973;-74
2023/06/13 13:58:18;;;;;;;;;;;;;;;;;;5099360;28;19920;-73
2023/06/13 14:00:44;;;;;;;;;;;;;;;;;;5098634;28;20129;-73
2023/06/13 14:03:09;;;;;;;;;;;;;;;;;;5100674;28;20385;-73
2023/06/13 14:05:34;;;;;;;;;;;;;;;;;;5107107;28;19952;-73
2023/06/13 14:08:00;;;;;;;;;;;;;;;;;;5099344;28;19916;-74
2023/06/13 14:10:25;;;;;;;;;;;;;;;;;;5078092;28;19923;-74
2023/06/13 14:12:50;;;;;;;;;;;;;;;;;;5100504;28;19916;-74
2023/06/13 14:15:16;;;;;;;;;;;;;;;;;;5095983;28;19920;-75
2023/06/13 14:17:41;;;;;;;;;;;;;;;;;;5099113;28;19958;-74
2023/06/13 14:20:06;;;;;;;;;;;;;;;;;;5093908;28;20288;-74
2023/06/13 14:22:35;;;;;;;;;;;;;;;;;;5104832;28;20685;-74
2023/06/13 14:25:00;;;;;;;;;;;;;;;;;;5106226;28;19969;-75
2023/06/13 14:27:25;;;;;;;;;;;;;;;;;;5110140;28;19955;-73
2023/06/13 14:29:51;;;;;;;;;;;;;;;;;;5098815;28;20307;-73
2023/06/13 14:32:16;;;;;;;;;;;;;;;;;;5095344;28;20384;-74
2023/06/13 14:34:42;;;;;;;;;;;;;;;;;;5110245;28;19926;-73
2023/06/13 14:37:07;;;;;;;;;;;;;;;;;;5111079;28;20022;-74
2023/06/13 14:39:32;;;;;;;;;;;;;;;;;;5092272;28;19984;-73
2023/06/13 14:41:57;;;;;;;;;;;;;;;;;;5110308;28;19955;-74
2023/06/13 14:44:23;;;;;;;;;;;;;;;;;;5110465;28;20363;-73
2023/06/13 14:46:48;;;;;;;;;;;;;;;;;;5109965;28;19916;-74
2023/06/13 14:49:13;;;;;;;;;;;;;;;;;;5110711;28;19915;-74
2023/06/13 14:51:39;;;;;;;;;;;;;;;;;;5105272;28;19920;-73
2023/06/13 14:54:04;;;;;;;;;;;;;;;;;;5098961;28;20279;-73
2023/06/13 14:56:30;;;;;;;;;;;;;;;;;;5089260;28;19961;-73
2023/06/13 14:58:55;;;;;;;;;;;;;;;;;;5108804;28;19924;-72
2023/06/13 15:01:20;;;;;;;;;;;;;;;;;;5111702;28;19916;-73
2023/06/13 15:03:45;;;;;;;;;;;;;;;;;;5109705;28;20299;-73
2023/06/13 15:06:11;;;;;;;;;;;;;;;;;;5099902;28;20271;-74
2023/06/13 15:08:36;;;;;;;;;;;;;;;;;;5093869;28;19926;-73
2023/06/13 15:11:02;;;;;;;;;;;;;;;;;;5109676;28;20015;-73
2023/06/13 15:13:27;;;;;;;;;;;;;;;;;;5112530;28;19915;-72
2023/06/13 15:15:52;;;;;;;;;;;;;;;;;;5109541;28;19922;-72
2023/06/13 15:18:17;;;;;;;;;;;;;;;;;;5111623;28;19915;-72
2023/06/13 15:20:43;;;;;;;;;;;;;;;;;;5112292;28;20386;-71
2023/06/13 15:23:08;;;;;;;;;;;;;;;;;;5112413;28;19920;-73
2023/06/13 15:25:33;;;;;;;;;;;;;;;;;;5111826;28;20367;-72
2023/06/13 15:27:59;;;;;;;;;;;;;;;;;;5112110;28;19915;-74
2023/06/13 15:30:24;;;;;;;;;;;;;;;;;;5076677;28;19927;-73
2023/06/13 15:32:49;;;;;;;;;;;;;;;;;;5112090;28;19926;-74
2023/06/13 15:35:15;;;;;;;;;;;;;;;;;;5104389;28;19915;-73
2023/06/13 15:37:42;;;;;;;;;;;;;;;;;;5110260;28;19919;-73
2023/06/13 15:40:07;;;;;;;;;;;;;;;;;;5111581;28;19923;-73
2023/06/13 15:42:32;;;;;;;;;;;;;;;;;;5111609;28;19919;-73
2023/06/13 15:44:59;;;;;;;;;;;;;;;;;;5110698;28;19919;-75
2023/06/13 15:47:24;;;;;;;;;;;;;;;;;;5096814;28;19965;-73
2023/06/13 15:49:49;;;;;;;;;;;;;;;;;;5099849;28;19924;-74
2023/06/13 15:52:15;;;;;;;;;;;;;;;;;;5091074;28;20003;-74
2023/06/13 15:54:40;;;;;;;;;;;;;;;;;;5091187;28;19916;-74
2023/06/13 15:57:06;;;;;;;;;;;;;;;;;;5106984;28;20397;-75
2023/06/13 15:59:32;;;;;;;;;;;;;;;;;;5109746;28;19968;-74
2023/06/13 16:01:57;;;;;;;;;;;;;;;;;;5112059;28;19916;-74
2023/06/13 16:04:22;;;;;;;;;;;;;;;;;;5104760;28;19922;-73
2023/06/13 16:06:48;;;;;;;;;;;;;;;;;;5102872;28;20406;-73
2023/06/13 16:09:14;;;;;;;;;;;;;;;;;;5105911;28;19969;-74
2023/06/13 16:11:40;;;;;;;;;;;;;;;;;;5105796;28;20436;-73
2023/06/13 16:14:05;;;;;;;;;;;;;;;;;;5109399;28;20014;-73
2023/06/13 16:16:31;;;;;;;;;;;;;;;;;;5110030;28;20010;-73
2023/06/13 16:18:56;;;;;;;;;;;;;;;;;;5107456;28;19943;-73
2023/06/13 16:21:21;;;;;;;;;;;;;;;;;;5090835;28;19972;-73
2023/06/13 16:23:46;;;;;;;;;;;;;;;;;;5106417;28;19926;-73
2023/06/13 16:26:12;;;;;;;;;;;;;;;;;;5088544;28;19916;-72
2023/06/13 16:28:40;;;;;;;;;;;;;;;;;;5110346;28;19950;-72
2023/06/13 16:31:05;;;;;;;;;;;;;;;;;;5108640;28;19927;-72
2023/06/13 16:33:30;;;;;;;;;;;;;;;;;;5103071;28;19920;-72
2023/06/13 16:35:55;;;;;;;;;;;;;;;;;;5108858;28;19924;-74